Last 7 Days

Gordon Valley 3 (GV3)

Hourly Data | America/Los_Angeles
as of 2/19/19 1:44 PM PST
Date Time Temp (°F) RH (%) Dew Pt (°F) Wind Spd (mph) Wind Dir (°) Wind Gust (mph) Wind Gst Dir (°) Latest Rain (In) Solar Rad Tot Hr (Cal/cm2) Daily Rain (In) Daily Min Temp (°F) Daily Max Temp (°F) Day
2/19/19 1300 56.4 43 34.1 5.8 S | 178 12.3 S | 183 0.00 61 0.00 32.6 57.4 2/19/19
2/19/19 1200 55.5 38 30.5 2.6 NNW | 345 9.8 N | 8 0.00 58 0.00 32.6 56.6 2/19/19
2/19/19 1100 52.9 42 30.2 5.0 N | 11 9.8 N | 2 0.00 51 0.00 32.6 54.6 2/19/19
2/19/19 1000 49.5 45 29.0 6.9 NNW | 340 15.0 NW | 325 0.00 39 0.00 32.6 51.7 2/19/19
2/19/19 0900 46.8 48 28.1 5.9 N | 350 13.2 N | 353 0.00 23 0.00 32.6 48.2 2/19/19
2/19/19 0800 41.8 56 27.3 6.1 NNE | 17 11.3 N | 2 0.00 7 0.00 32.6 44.4 2/19/19
2/19/19 0700 41.6 54 26.2 7.8 NNE | 12 13.6 NNW | 330 0.00 0 0.00 32.6 42.7 2/19/19
2/19/19 0600 42.0 54 26.7 7.0 NNW | 346 13.5 N | 353 0.00 0 0.00 32.6 42.6 2/19/19
2/19/19 0500 38.3 63 26.8 3.0 NW | 316 8.3 NW | 309 0.00 0 0.00 32.6 40.9 2/19/19
2/19/19 0400 38.4 65 27.6 4.0 NNW | 338 9.1 N | 353 0.00 0 0.00 32.6 40.4 2/19/19
2/19/19 0300 36.9 75 29.6 4.9 N | 1 7.3 NNE | 15 0.00 0 0.00 32.6 40.4 2/19/19
2/19/19 0200 35.2 80 29.6 3.7 NNE | 21 7.3 NNE | 25 0.00 0 0.00 32.6 39.0 2/19/19
2/19/19 0100 35.4 79 29.5 3.1 N | 351 8.1 NNW | 346 0.00 0 0.00 32.6 39.0 2/19/19
2/19/19 0000 35.9 80 30.2 3.3 NNE | 28 6.1 NNE | 26 0.00 0 0.00 33.1 55.9 2/18/19
2/18/19 2300 34.8 86 30.9 3.1 ENE | 58 4.9 NNE | 33 0.00 0 0.00 33.1 55.9 2/18/19
2/18/19 2200 35.9 81 30.6 2.6 ENE | 76 4.9 NNE | 33 0.00 0 0.00 33.1 55.9 2/18/19
2/18/19 2100 35.6 85 31.4 3.7 NNE | 23 7.4 NNE | 12 0.00 0 0.00 33.1 55.9 2/18/19
2/18/19 2000 36.6 80 31.2 1.3 N | 8 4.3 NE | 34 0.00 0 0.00 34.2 55.9 2/18/19
2/18/19 1900 42.9 59 29.4 2.7 NNE | 16 5.4 N | 7 0.00 0 0.00 37.2 55.9 2/18/19
2/18/19 1800 50.7 40 26.9 5.0 N | 356 11.0 N | 350 0.00 4 0.00 41.4 55.9 2/18/19
2/18/19 1700 53.5 35 26.5 7.1 N | 355 15.2 NNW | 334 0.00 20 0.00 41.4 55.9 2/18/19
2/18/19 1600 54.1 36 27.4 9.6 N | 349 16.8 NNW | 345 0.00 36 0.00 41.4 55.9 2/18/19
2/18/19 1500 54.5 36 28.2 9.9 NNW | 342 18.3 N | 352 0.00 49 0.00 41.4 55.9 2/18/19
2/18/19 1400 54.8 36 28.0 8.8 N | 352 15.5 N | 0 0.00 58 0.00 41.4 55.9 2/18/19
2/18/19 1300 53.9 38 28.7 8.4 NNW | 338 15.3 NNW | 340 0.00 61 0.00 41.4 54.8 2/18/19
2/18/19 1200 52.2 40 28.7 9.3 NNW | 340 17.2 WNW | 303 0.00 59 0.00 41.4 53.4 2/18/19
2/18/19 1100 50.7 41 27.7 11.1 N | 349 19.4 N | 354 0.00 51 0.00 41.4 51.5 2/18/19
2/18/19 1000 48.8 42 26.8 11.6 NNW | 345 21.0 NNW | 347 0.00 39 0.00 41.4 49.7 2/18/19
2/18/19 0900 47.0 44 26.0 10.0 NNW | 347 19.0 N | 353 0.00 23 0.00 41.4 48.4 2/18/19
2/18/19 0800 43.4 49 25.7 6.7 N | 349 16.2 N | 0 0.00 7 0.00 41.4 45.8 2/18/19
2/18/19 0700 42.1 50 24.9 3.7 NNW | 346 9.5 NNW | 341 0.00 0 0.00 41.4 44.4 2/18/19
2/18/19 0600 44.0 46 24.7 8.9 N | 352 16.0 N | 354 0.00 0 0.00 41.4 44.4 2/18/19
2/18/19 0500 43.3 50 25.8 9.0 N | 352 15.8 NNW | 340 0.00 0 0.00 41.4 43.9 2/18/19
2/18/19 0400 43.1 50 25.9 7.3 N | 350 13.8 N | 355 0.00 0 0.00 41.4 43.9 2/18/19
2/18/19 0300 43.2 52 26.8 7.1 NNW | 338 13.5 NNW | 334 0.00 0 0.00 41.4 43.7 2/18/19
2/18/19 0200 42.8 56 28.4 7.1 NNW | 347 15.7 NNW | 341 0.00 0 0.00 41.4 43.6 2/18/19
2/18/19 0100 42.2 70 33.2 4.8 NNW | 347 12.0 NNE | 13 0.00 0 0.00 41.4 42.7 2/18/19
2/18/19 0000 35.1 97 34.3 2.3 N | 8 10.1 N | 351 0.00 0 0.18 31.5 53.7 2/17/19
2/17/19 2300 33.0 100 33.0 0.6 SE | 126 2.7 ENE | 65 0.00 0 0.18 31.6 53.7 2/17/19
2/17/19 2200 37.0 99 36.8 1.0 NE | 44 3.9 NE | 53 0.00 0 0.18 33.9 53.7 2/17/19
2/17/19 2100 40.3 97 39.4 3.3 N | 353 12.6 NNE | 18 0.01 0 0.18 33.9 53.7 2/17/19
2/17/19 2000 36.8 100 36.8 1.2 NE | 47 4.1 NNE | 26 0.00 0 0.17 33.9 53.7 2/17/19
2/17/19 1900 38.1 100 38.1 2.9 NNE | 27 6.4 NNW | 348 0.00 0 0.17 33.9 53.7 2/17/19
2/17/19 1800 40.4 99 40.3 2.5 NNE | 26 6.3 NE | 41 0.00 1 0.17 33.9 53.7 2/17/19
2/17/19 1700 44.8 92 42.8 2.3 NE | 36 9.8 NE | 54 0.01 5 0.17 33.9 53.7 2/17/19
2/17/19 1600 45.9 93 43.9 2.9 NNE | 30 5.9 NE | 48 0.01 12 0.16 33.9 53.7 2/17/19
2/17/19 1500 47.8 78 41.4 3.5 E | 97 9.0 ENE | 62 0.13 12 0.15 33.9 53.7 2/17/19
2/17/19 1400 50.4 67 40.0 4.8 ESE | 110 11.5 ESE | 107 0.00 26 0.02 33.9 53.7 2/17/19
2/17/19 1300 51.3 61 38.4 4.2 E | 86 9.0 NNE | 32 0.00 41 0.02 33.9 53.7 2/17/19
2/17/19 1200 50.7 59 36.7 4.3 NNW | 334 10.0 NNW | 332 0.00 56 0.02 33.9 52.0 2/17/19
2/17/19 1100 48.1 76 41.0 3.2 NW | 305 8.1 NW | 309 0.00 47 0.02 33.9 49.7 2/17/19
2/17/19 1000 45.4 92 43.3 3.1 NNW | 328 6.8 NNW | 336 0.00 36 0.02 33.9 46.9 2/17/19
2/17/19 0900 43.0 100 43.0 2.0 NNW | 332 7.1 WNW | 302 0.00 22 0.02 33.9 44.8 2/17/19
2/17/19 0800 36.1 100 36.1 0.7 ESE | 123 3.8 W | 259 0.00 6 0.02 33.9 43.4 2/17/19
2/17/19 0700 35.0 100 35.0 1.0 E | 89 3.9 W | 269 0.00 0 0.02 33.9 43.4 2/17/19
2/17/19 0600 37.3 100 37.3 1.8 NE | 36 4.8 ENE | 74 0.00 0 0.02 36.0 43.4 2/17/19
2/17/19 0500 39.5 100 39.5 1.0 W | 279 4.4 WSW | 256 0.00 0 0.02 37.7 43.4 2/17/19
2/17/19 0400 40.8 99 40.5 4.0 SSE | 150 10.3 SSE | 160 0.02 0 0.02 39.0 43.4 2/17/19
2/17/19 0300 41.7 88 38.4 2.2 WSW | 245 5.6 SW | 227 0.00 0 0.00 41.0 43.4 2/17/19
2/17/19 0200 42.4 82 37.4 4.5 N | 9 10.6 N | 0 0.00 0 0.00 41.4 43.4 2/17/19
2/17/19 0100 42.3 80 36.7 3.4 NNW | 337 10.5 WNW | 287 0.00 0 0.00 41.4 43.4 2/17/19
2/17/19 0000 42.0 82 37.0 5.6 N | 349 11.5 NNW | 340 0.00 0 0.08 35.8 54.3 2/16/19
2/16/19 2300 42.3 82 37.3 7.2 NNW | 338 14.3 N | 4 0.00 0 0.08 35.8 54.3 2/16/19
2/16/19 2200 42.9 81 37.4 7.5 NW | 318 12.3 NNW | 328 0.00 0 0.08 35.8 54.3 2/16/19
2/16/19 2100 44.2 78 38.0 9.7 NNW | 329 19.8 NNW | 327 0.00 0 0.08 35.8 54.3 2/16/19
2/16/19 2000 45.3 77 38.7 8.5 NNW | 328 16.7 NW | 312 0.00 0 0.08 35.8 54.3 2/16/19
2/16/19 1900 45.8 75 38.4 4.7 NW | 316 10.0 WNW | 282 0.00 0 0.08 35.8 54.3 2/16/19
2/16/19 1800 48.2 69 38.6 5.2 NW | 311 12.1 WNW | 285 0.00 2 0.08 35.8 54.3 2/16/19
2/16/19 1700 50.5 68 40.4 5.8 W | 276 12.6 SW | 225 0.00 14 0.08 35.8 54.3 2/16/19
2/16/19 1600 50.3 77 43.3 5.7 W | 270 15.8 W | 263 0.00 34 0.08 35.8 54.3 2/16/19
2/16/19 1500 48.7 89 45.7 5.4 WSW | 257 18.2 WSW | 253 0.01 33 0.08 35.8 54.3 2/16/19
2/16/19 1400 49.0 79 42.7 5.7 WNW | 296 17.5 N | 10 0.02 30 0.07 35.8 54.3 2/16/19
2/16/19 1300 52.8 66 41.6 7.4 W | 280 16.0 N | 351 0.00 48 0.05 35.8 54.3 2/16/19
2/16/19 1200 51.8 75 44.2 6.9 WNW | 302 16.5 WNW | 296 0.00 51 0.05 35.8 52.9 2/16/19
2/16/19 1100 48.7 97 47.8 6.2 NW | 324 13.3 NNW | 327 0.00 36 0.05 35.8 50.4 2/16/19
2/16/19 1000 45.2 100 45.2 3.6 NW | 320 11.0 WNW | 303 0.00 12 0.05 35.8 47.4 2/16/19
2/16/19 0900 43.9 100 43.9 1.1 E | 86 4.4 WNW | 287 0.00 15 0.05 35.8 45.2 2/16/19
2/16/19 0800 38.9 100 38.9 1.3 NE | 49 3.3 E | 79 0.00 6 0.05 35.8 41.5 2/16/19
2/16/19 0700 37.6 100 37.6 0.8 NE | 50 3.8 ENE | 59 0.00 0 0.05 35.8 41.5 2/16/19
2/16/19 0600 38.9 100 38.9 2.2 N | 1 6.8 E | 87 0.00 0 0.05 37.6 41.5 2/16/19
2/16/19 0500 39.8 100 39.8 2.3 SSE | 160 6.9 SSE | 156 0.00 0 0.05 38.4 41.5 2/16/19
2/16/19 0400 39.2 100 39.2 0.7 WSW | 247 3.6 WSW | 258 0.00 0 0.05 38.4 41.5 2/16/19
2/16/19 0300 40.3 100 40.3 0.1 N | 1 1.6 N | 6 0.00 0 0.05 39.8 41.5 2/16/19
2/16/19 0200 41.2 100 41.2 0.7 N | 8 2.9 N | 10 0.01 0 0.05 40.7 41.5 2/16/19
2/16/19 0100 41.1 100 41.1 0.7 NNW | 348 2.9 NNE | 28 0.04 0 0.04 40.7 41.4 2/16/19
2/16/19 0000 40.5 100 40.5 1.3 ENE | 77 5.6 E | 91 0.02 0 0.27 37.7 51.3 2/15/19
2/15/19 2300 39.1 100 39.1 0.5 E | 82 4.1 ENE | 68 0.03 0 0.25 37.7 51.3 2/15/19
2/15/19 2200 38.4 100 38.4 0.5 NE | 39 2.7 NNW | 338 0.00 0 0.22 37.7 51.3 2/15/19
2/15/19 2100 39.4 100 39.4 0.6 N | 352 3.4 NW | 312 0.00 0 0.22 38.4 51.3 2/15/19
2/15/19 2000 42.0 100 42.0 0.3 NE | 49 2.9 NE | 49 0.00 0 0.22 39.5 51.3 2/15/19
2/15/19 1900 44.5 100 44.5 1.0 SW | 235 4.4 WSW | 256 0.00 0 0.22 40.7 51.3 2/15/19
2/15/19 1800 46.0 92 43.9 2.7 ENE | 60 9.0 NNE | 16 0.00 2 0.22 40.7 51.3 2/15/19
2/15/19 1700 47.0 84 42.6 3.2 SW | 224 8.3 SW | 225 0.00 8 0.22 40.7 51.3 2/15/19
2/15/19 1600 47.6 84 43.0 6.3 SW | 218 16.5 WSW | 243 0.01 21 0.22 40.7 51.3 2/15/19
2/15/19 1500 49.4 79 43.1 8.7 SW | 225 16.7 SW | 214 0.00 30 0.21 40.7 51.3 2/15/19
2/15/19 1400 48.9 87 45.0 5.4 WSW | 247 15.5 WSW | 237 0.00 55 0.21 40.7 50.7 2/15/19
2/15/19 1300 45.6 97 44.8 5.6 WSW | 255 12.3 W | 280 0.03 26 0.21 40.7 50.2 2/15/19
2/15/19 1200 45.3 96 44.3 6.7 W | 280 14.6 WNW | 296 0.04 21 0.18 40.7 50.2 2/15/19
2/15/19 1100 44.8 96 43.8 6.3 SW | 216 15.2 WSW | 247 0.04 25 0.14 40.7 50.0 2/15/19
2/15/19 1000 47.4 88 44.0 6.0 SW | 224 16.2 WNW | 287 0.02 16 0.10 40.7 50.0 2/15/19
2/15/19 0900 46.7 92 44.5 5.5 SW | 224 9.5 SW | 224 0.00 12 0.08 40.7 49.1 2/15/19
2/15/19 0800 42.4 99 42.0 1.3 SSW | 202 5.6 SSW | 206 0.00 4 0.08 40.7 46.1 2/15/19
2/15/19 0700 43.3 91 40.8 3.0 SW | 230 6.6 WSW | 252 0.00 0 0.08 41.6 46.1 2/15/19
2/15/19 0600 45.0 92 42.8 6.8 WSW | 246 19.2 WSW | 253 0.00 0 0.08 43.5 46.1 2/15/19
2/15/19 0500 44.7 97 43.9 6.9 SW | 236 13.0 SW | 217 0.00 0 0.08 43.5 46.1 2/15/19
2/15/19 0400 44.2 98 43.7 7.6 WSW | 247 14.2 WSW | 251 0.00 0 0.08 43.5 46.1 2/15/19
2/15/19 0300 45.4 97 44.6 9.2 WSW | 247 21.5 SW | 221 0.05 0 0.08 43.9 46.1 2/15/19
2/15/19 0200 45.2 98 44.7 7.6 WSW | 239 17.5 WSW | 254 0.01 0 0.03 44.0 46.1 2/15/19
2/15/19 0100 45.5 100 45.5 6.4 SW | 229 14.2 SW | 235 0.02 0 0.02 44.5 46.1 2/15/19
2/15/19 0000 46.2 100 46.2 7.9 WSW | 250 16.8 WSW | 248 0.02 0 1.23 45.6 55.9 2/14/19
2/14/19 2300 46.6 100 46.6 6.9 SW | 228 14.2 WSW | 250 0.06 0 1.21 46.1 55.9 2/14/19
2/14/19 2200 48.4 96 47.4 8.9 SW | 217 17.0 SW | 216 0.17 0 1.15 46.1 55.9 2/14/19
2/14/19 2100 49.6 92 47.4 8.2 SSW | 206 20.0 SW | 216 0.00 0 0.98 46.9 55.9 2/14/19
2/14/19 2000 47.7 94 46.2 5.1 SSW | 204 11.8 SW | 228 0.00 0 0.98 46.9 55.9 2/14/19
2/14/19 1900 49.4 90 46.7 7.3 SW | 219 15.7 WSW | 239 0.00 0 0.98 48.0 55.9 2/14/19
2/14/19 1800 51.0 85 46.6 7.0 SW | 221 12.8 SW | 217 0.00 2 0.98 48.4 55.9 2/14/19
2/14/19 1700 53.3 79 47.1 8.9 SW | 233 20.7 SSW | 203 0.00 16 0.98 48.4 55.9 2/14/19
2/14/19 1600 53.6 87 49.8 7.8 WSW | 241 20.0 WSW | 255 0.00 23 0.98 48.4 55.9 2/14/19
2/14/19 1500 54.4 91 51.8 10.7 WSW | 250 20.2 SW | 223 0.00 39 0.98 48.4 55.9 2/14/19
2/14/19 1400 52.8 100 52.8 11.1 WSW | 241 20.2 SSW | 211 0.00 40 0.98 48.4 55.0 2/14/19
2/14/19 1300 50.2 100 50.2 6.9 SW | 229 17.7 WSW | 238 0.00 32 0.98 48.4 55.0 2/14/19
2/14/19 1200 48.7 100 48.7 6.4 WSW | 254 18.5 WSW | 242 0.10 7 0.98 48.4 55.0 2/14/19
2/14/19 1100 49.8 100 49.8 9.2 WSW | 239 17.8 W | 261 0.05 12 0.88 49.2 55.0 2/14/19
2/14/19 1000 51.5 100 51.6 12.5 SW | 228 20.5 SW | 228 0.05 17 0.83 49.8 55.0 2/14/19
2/14/19 0900 51.2 100 51.2 14.5 WSW | 238 23.0 W | 274 0.00 18 0.78 50.3 55.0 2/14/19
2/14/19 0800 51.2 100 51.2 12.4 WSW | 241 21.4 SW | 228 0.00 3 0.78 50.8 55.0 2/14/19
2/14/19 0700 51.9 100 52.0 10.6 WSW | 243 22.2 SW | 232 0.02 0 0.78 50.9 55.0 2/14/19
2/14/19 0600 54.5 100 54.6 10.8 SSW | 199 23.4 SSW | 205 0.01 0 0.76 51.7 55.0 2/14/19
2/14/19 0500 54.3 100 54.3 5.7 S | 169 11.0 S | 182 0.04 0 0.75 51.7 55.0 2/14/19
2/14/19 0400 54.0 100 54.0 7.0 S | 172 15.2 SSE | 168 0.05 0 0.71 51.7 55.0 2/14/19
2/14/19 0300 52.8 100 52.8 2.7 SSE | 158 10.3 S | 191 0.14 0 0.66 51.7 53.4 2/14/19
2/14/19 0200 52.2 100 52.2 2.5 ESE | 116 7.3 ESE | 115 0.41 0 0.52 51.7 52.9 2/14/19
2/14/19 0100 52.1 100 52.1 2.6 SSW | 209 8.0 SSE | 153 0.11 0 0.11 51.7 52.9 2/14/19
2/14/19 0000 52.3 100 52.3 6.3 SSE | 154 14.6 SE | 134 0.11 0 2.66 42.2 53.0 2/13/19
2/13/19 2300 50.0 100 50.0 0.8 NW | 315 4.1 W | 280 0.06 0 2.55 42.2 51.2 2/13/19
2/13/19 2200 49.6 100 49.6 1.4 W | 279 5.1 WNW | 288 0.05 0 2.49 42.2 50.2 2/13/19
2/13/19 2100 49.1 100 49.2 1.6 NNW | 327 4.6 E | 89 0.13 0 2.44 42.2 49.6 2/13/19
2/13/19 2000 48.8 100 48.8 1.8 SSW | 212 4.9 W | 259 0.21 0 2.31 42.2 49.4 2/13/19
2/13/19 1900 48.3 100 48.3 0.7 ENE | 71 2.9 WSW | 250 0.15 0 2.10 42.2 48.9 2/13/19
2/13/19 1800 48.5 100 48.5 0.3 NNE | 15 2.1 N | 354 0.05 0 1.95 42.2 48.9 2/13/19
2/13/19 1700 48.7 100 48.7 0.5 NNW | 338 2.2 NW | 318 0.04 2 1.90 42.2 48.9 2/13/19
2/13/19 1600 48.5 100 48.5 1.3 NW | 309 3.8 NNW | 330 0.06 4 1.86 42.2 48.8 2/13/19
2/13/19 1500 48.0 100 48.0 1.7 NNW | 348 4.8 NW | 319 0.11 4 1.80 42.2 48.5 2/13/19
2/13/19 1400 47.0 100 47.0 1.8 ESE | 104 6.9 SE | 134 0.08 4 1.69 42.2 47.7 2/13/19
2/13/19 1300 45.7 100 45.7 2.5 E | 99 10.3 E | 80 0.04 2 1.61 42.2 46.6 2/13/19
2/13/19 1200 45.3 100 45.3 3.6 SE | 131 13.6 ESE | 111 0.09 2 1.57 42.2 45.6 2/13/19
2/13/19 1100 45.1 100 45.1 6.3 ESE | 115 15.3 SE | 132 0.10 5 1.48 42.2 45.5 2/13/19
2/13/19 1000 44.4 100 44.5 5.5 ESE | 119 13.8 ESE | 118 0.20 3 1.38 42.2 45.1 2/13/19
2/13/19 0900 43.9 100 43.9 8.2 E | 97 17.7 ESE | 121 0.30 1 1.18 42.2 45.1 2/13/19
2/13/19 0800 44.4 100 44.4 6.5 E | 91 16.2 E | 98 0.21 0 0.88 42.2 45.1 2/13/19
2/13/19 0700 44.0 100 44.0 1.9 NNE | 21 5.8 NNE | 20 0.17 0 0.67 42.2 44.4 2/13/19
2/13/19 0600 43.9 100 43.9 4.9 NNW | 347 10.8 NNE | 25 0.24 0 0.50 42.2 44.3 2/13/19
2/13/19 0500 43.6 100 43.6 2.8 NNW | 334 7.1 NW | 319 0.09 0 0.26 42.2 44.1 2/13/19
2/13/19 0400 43.2 100 43.2 1.2 NNW | 346 4.1 NW | 307 0.05 0 0.17 42.2 43.8 2/13/19
2/13/19 0300 43.1 100 43.1 1.4 NW | 309 4.8 N | 0 0.03 0 0.12 42.2 43.8 2/13/19
2/13/19 0200 43.3 100 43.3 2.3 NE | 47 9.1 ENE | 69 0.06 0 0.09 42.2 43.8 2/13/19
2/13/19 0100 43.0 100 43.0 3.7 E | 97 10.5 E | 84 0.03 0 0.03 42.2 43.3 2/13/19
2/13/19 0000 41.8 100 41.8 1.0 WNW | 288 4.4 WNW | 298 0.09 0 0.22 32.4 46.2 2/12/19
2/12/19 2300 42.0 100 42.0 1.2 WSW | 243 4.1 ENE | 64 0.09 0 0.13 32.4 46.2 2/12/19
2/12/19 2200 43.3 96 42.1 2.7 W | 259 7.3 W | 281 0.04 0 0.04 32.4 46.2 2/12/19
2/12/19 2100 43.6 92 41.5 3.1 SSW | 200 10.3 SW | 221 0.00 0 0.00 32.4 46.2 2/12/19
2/12/19 2000 42.4 97 41.6 2.9 NNE | 12 10.0 N | 3 0.00 0 0.00 32.4 46.2 2/12/19
2/12/19 1900 42.5 92 40.5 1.3 ENE | 74 3.8 WSW | 247 0.00 0 0.00 32.4 46.2 2/12/19
2/12/19 1800 43.9 84 39.3 1.4 WSW | 238 6.1 ENE | 67 0.00 0 0.00 32.4 46.2 2/12/19
2/12/19 1700 45.5 74 37.8 2.6 SSE | 160 8.6 SSW | 194 0.00 2 0.00 32.4 46.2 2/12/19
2/12/19 1600 45.5 77 38.8 3.3 ESE | 114 7.4 ENE | 57 0.00 5 0.00 32.4 46.0 2/12/19
2/12/19 1500 44.7 81 39.2 3.1 E | 100 9.8 NE | 40 0.00 8 0.00 32.4 45.7 2/12/19
2/12/19 1400 44.5 85 40.3 2.7 SE | 128 10.1 E | 80 0.00 10 0.00 32.4 45.0 2/12/19
Tip: Bookmark this page for easy future reference